Time;durP1;ratioP1;P1;durP2;ratioP2;P2;SDS_P1;SDS_P2;PMS_P1;PMS_P2;Temp;Humidity;BMP_temperature;BMP_pressure;BME280_temperature;BME280_humidity;BME280_pressure;Samples;Min_cycle;Max_cycle;Signal;HPM_P1;HPM_P2
2023/04/22 00:01:16;;;;;;;4.72;2.60;;;10.20;99.90;;;;;;5034816;28;20530;-33
2023/04/22 00:03:43;;;;;;;4.95;2.80;;;10.20;99.90;;;;;;5036624;28;20136;-33
2023/04/22 00:06:09;;;;;;;4.68;2.80;;;10.10;99.90;;;;;;5024889;28;20045;-35
2023/04/22 00:08:35;;;;;;;5.28;2.65;;;10.10;99.90;;;;;;5014419;28;20562;-33
2023/04/22 00:11:01;;;;;;;5.53;2.88;;;10.10;99.90;;;;;;5030708;28;20045;-33
2023/04/22 00:13:27;;;;;;;4.60;2.67;;;10.00;99.90;;;;;;5019461;28;20133;-34
2023/04/22 00:15:52;;;;;;;4.68;2.35;;;10.00;99.90;;;;;;5011171;28;20069;-34
2023/04/22 00:18:18;;;;;;;4.00;2.33;;;10.00;99.90;;;;;;5015922;28;20503;-34
2023/04/22 00:20:44;;;;;;;4.35;2.38;;;9.90;99.90;;;;;;5015338;28;20081;-34
2023/04/22 00:23:11;;;;;;;8.15;2.70;;;9.90;99.90;;;;;;5019290;28;20414;-34
2023/04/22 00:25:38;;;;;;;4.50;2.78;;;9.80;99.90;;;;;;5031481;28;20037;-34
2023/04/22 00:28:04;;;;;;;3.35;2.10;;;9.80;99.90;;;;;;5008943;28;20054;-33
2023/04/22 00:30:30;;;;;;;3.60;2.13;;;9.80;99.90;;;;;;5022752;28;20041;-33
2023/04/22 00:32:56;;;;;;;3.33;2.05;;;9.80;99.90;;;;;;5033732;28;20619;-33
2023/04/22 00:35:21;;;;;;;4.82;2.13;;;9.70;99.90;;;;;;5022404;28;20056;-33
2023/04/22 00:37:47;;;;;;;4.03;2.40;;;9.70;99.90;;;;;;5029217;28;20053;-35
2023/04/22 00:40:13;;;;;;;3.63;2.33;;;9.60;99.90;;;;;;5022262;28;20107;-33
2023/04/22 00:42:40;;;;;;;4.88;2.45;;;9.60;99.90;;;;;;5009211;28;20500;-33
2023/04/22 00:45:10;;;;;;;3.85;2.47;;;9.50;99.90;;;;;;5015951;28;20045;-33
2023/04/22 00:47:36;;;;;;;4.50;2.30;;;9.50;99.90;;;;;;5018980;28;20525;-33
2023/04/22 00:50:02;;;;;;;7.60;2.83;;;9.50;99.90;;;;;;5021856;28;20051;-33
2023/04/22 00:52:28;;;;;;;4.00;2.20;;;9.50;99.90;;;;;;5036910;28;20049;-34
2023/04/22 00:54:53;;;;;;;4.05;2.28;;;9.50;99.90;;;;;;5032650;28;20096;-33
2023/04/22 00:57:19;;;;;;;4.60;2.50;;;9.50;99.90;;;;;;5029649;28;20522;-33
2023/04/22 00:59:46;;;;;;;4.32;2.80;;;9.40;99.90;;;;;;5016167;28;20510;-34
2023/04/22 01:02:12;;;;;;;5.50;2.35;;;9.40;99.90;;;;;;5011271;28;20057;-34
2023/04/22 01:04:38;;;;;;;4.15;2.47;;;9.40;99.90;;;;;;5036652;28;20519;-33
2023/04/22 01:07:04;;;;;;;5.68;2.80;;;9.40;99.90;;;;;;5041289;28;20111;-33
2023/04/22 01:09:30;;;;;;;5.78;3.83;;;9.40;99.90;;;;;;5038451;28;20053;-33
2023/04/22 01:11:56;;;;;;;4.88;3.10;;;9.40;99.90;;;;;;5028278;28;20118;-33
2023/04/22 01:14:23;;;;;;;6.22;3.50;;;9.40;99.90;;;;;;5018657;28;20053;-33
2023/04/22 01:16:50;;;;;;;6.47;4.32;;;9.40;99.90;;;;;;5034519;28;20095;-33
2023/04/22 01:19:16;;;;;;;5.68;3.55;;;9.40;99.90;;;;;;5032223;28;20056;-34
2023/04/22 01:21:44;;;;;;;6.38;3.75;;;9.40;99.90;;;;;;5056350;28;20042;-33
2023/04/22 01:24:09;;;;;;;7.53;4.63;;;9.40;99.90;;;;;;5023422;28;20126;-35
2023/04/22 01:26:35;;;;;;;5.35;3.50;;;9.40;99.90;;;;;;5036412;28;20462;-34
2023/04/22 01:29:02;;;;;;;10.07;4.65;;;9.30;99.90;;;;;;5039546;28;20041;-34
2023/04/22 01:31:28;;;;;;;6.75;4.22;;;9.30;99.90;;;;;;5037133;28;20037;-34
2023/04/22 01:33:54;;;;;;;8.45;5.70;;;9.30;99.90;;;;;;5026042;28;20050;-34
2023/04/22 01:36:20;;;;;;;6.90;4.22;;;9.30;99.90;;;;;;5036117;28;20079;-34
2023/04/22 01:38:46;;;;;;;9.27;6.00;;;9.20;99.90;;;;;;5035634;28;20547;-33
2023/04/22 01:41:12;;;;;;;8.57;5.00;;;9.20;99.90;;;;;;5030325;28;20455;-33
2023/04/22 01:43:39;;;;;;;7.72;5.20;;;9.20;99.90;;;;;;5026545;28;20128;-34
2023/04/22 01:46:05;;;;;;;9.65;5.82;;;9.20;99.90;;;;;;5031162;28;20055;-33
2023/04/22 01:48:31;;;;;;;8.88;5.80;;;9.20;99.90;;;;;;5038479;28;20045;-33
2023/04/22 01:50:56;;;;;;;9.43;6.70;;;9.20;99.90;;;;;;5039766;28;20041;-34
2023/04/22 01:53:22;;;;;;;11.00;6.68;;;9.20;99.90;;;;;;5020019;28;20459;-33
2023/04/22 01:55:47;;;;;;;10.35;7.00;;;9.20;99.90;;;;;;5032029;28;20075;-33
2023/04/22 01:58:13;;;;;;;8.40;5.93;;;9.20;99.90;;;;;;5035045;28;20499;-34
2023/04/22 02:00:39;;;;;;;10.60;6.97;;;9.20;99.90;;;;;;5020794;28;20486;-33
2023/04/22 02:03:05;;;;;;;10.98;7.68;;;9.20;99.90;;;;;;5023983;28;20110;-33
2023/04/22 02:05:31;;;;;;;10.48;7.05;;;9.20;99.90;;;;;;5036232;28;20563;-34
2023/04/22 02:07:56;;;;;;;11.57;7.85;;;9.10;99.90;;;;;;5036787;28;20134;-37
2023/04/22 02:10:22;;;;;;;11.35;7.88;;;9.10;99.90;;;;;;5035139;28;20136;-33
2023/04/22 02:12:48;;;;;;;9.93;7.22;;;9.10;99.90;;;;;;5020540;28;20503;-33
2023/04/22 02:15:14;;;;;;;9.88;6.53;;;9.10;99.90;;;;;;5022306;28;20056;-33
2023/04/22 02:17:41;;;;;;;10.80;7.15;;;9.10;99.90;;;;;;5033264;28;20056;-33
2023/04/22 02:20:10;;;;;;;9.68;6.90;;;9.10;99.90;;;;;;5021940;28;20479;-33
2023/04/22 02:22:36;;;;;;;11.20;7.57;;;9.10;99.90;;;;;;5036623;28;20052;-33
2023/04/22 02:25:03;;;;;;;10.52;5.60;;;9.00;99.90;;;;;;5023950;28;20503;-33
2023/04/22 02:27:29;;;;;;;10.73;6.65;;;9.00;99.90;;;;;;5041110;28;20068;-33
2023/04/22 02:29:55;;;;;;;10.95;6.85;;;9.00;99.90;;;;;;5036060;28;20048;-34
2023/04/22 02:32:20;;;;;;;13.52;6.90;;;9.00;99.90;;;;;;5035010;28;20059;-34
2023/04/22 02:34:47;;;;;;;9.68;6.47;;;9.00;99.90;;;;;;5023253;28;20064;-34
2023/04/22 02:37:13;;;;;;;10.48;7.10;;;8.90;99.90;;;;;;5017560;28;20049;-34
2023/04/22 02:39:38;;;;;;;9.77;6.25;;;9.00;99.90;;;;;;5026921;28;20052;-34
2023/04/22 02:42:04;;;;;;;7.80;4.97;;;8.90;99.90;;;;;;5022433;28;20061;-34
2023/04/22 02:44:30;;;;;;;8.35;5.30;;;8.90;99.90;;;;;;5016700;28;20053;-34
2023/04/22 02:46:55;;;;;;;8.88;5.22;;;8.90;99.90;;;;;;5035466;28;20806;-34
2023/04/22 02:49:21;;;;;;;8.68;5.65;;;8.80;99.90;;;;;;5035509;28;20073;-34
2023/04/22 02:51:47;;;;;;;8.27;5.38;;;8.80;99.90;;;;;;5039166;28;20052;-34
2023/04/22 02:54:13;;;;;;;9.35;5.30;;;8.80;99.90;;;;;;5037580;28;20045;-34
2023/04/22 02:56:38;;;;;;;11.05;6.47;;;8.80;99.90;;;;;;5043600;28;20198;-34
2023/04/22 02:59:04;;;;;;;11.15;6.00;;;8.70;99.90;;;;;;5020991;28;20065;-33
2023/04/22 03:01:30;;;;;;;10.77;6.13;;;8.70;99.90;;;;;;5042072;28;20053;-34
2023/04/22 03:03:56;;;;;;;10.02;6.20;;;8.70;99.90;;;;;;5039847;28;20044;-33
2023/04/22 03:06:22;;;;;;;9.75;5.80;;;8.70;99.90;;;;;;5039223;28;20045;-34
2023/04/22 03:08:47;;;;;;;8.95;5.78;;;8.60;99.90;;;;;;5030812;28;20045;-34
2023/04/22 03:11:13;;;;;;;8.60;5.70;;;8.70;99.90;;;;;;5035793;28;20395;-34
2023/04/22 03:13:39;;;;;;;8.70;5.78;;;8.60;99.90;;;;;;5042008;28;20164;-34
2023/04/22 03:16:05;;;;;;;7.82;4.95;;;8.60;99.90;;;;;;5039296;28;20050;-35
2023/04/22 03:18:30;;;;;;;8.48;5.75;;;8.60;99.90;;;;;;5030242;28;20457;-34
2023/04/22 03:20:56;;;;;;;8.82;5.45;;;8.60;99.90;;;;;;5017542;28;20064;-34
2023/04/22 03:23:22;;;;;;;8.95;5.43;;;8.60;99.90;;;;;;5015750;28;20072;-34
2023/04/22 03:25:47;;;;;;;6.75;4.68;;;8.50;99.90;;;;;;5026398;28;20049;-34
2023/04/22 03:28:13;;;;;;;10.05;6.18;;;8.50;99.90;;;;;;5030239;28;20099;-34
2023/04/22 03:30:39;;;;;;;8.15;5.30;;;8.50;99.90;;;;;;5025436;28;20122;-34
2023/04/22 03:33:04;;;;;;;7.80;5.35;;;8.50;99.90;;;;;;5033987;28;20107;-34
2023/04/22 03:35:30;;;;;;;8.40;5.70;;;8.40;99.90;;;;;;5022293;28;20052;-34
2023/04/22 03:37:55;;;;;;;8.02;5.43;;;8.50;99.90;;;;;;5022327;28;20470;-34
2023/04/22 03:40:21;;;;;;;8.98;5.88;;;8.50;99.90;;;;;;5031049;28;20110;-33
2023/04/22 03:42:47;;;;;;;8.48;5.65;;;8.40;99.90;;;;;;5028495;28;20072;-33
2023/04/22 03:45:12;;;;;;;9.25;5.55;;;8.40;99.90;;;;;;5034251;28;20204;-33
2023/04/22 03:47:38;;;;;;;8.88;5.88;;;8.40;99.90;;;;;;5037612;28;20099;-34
2023/04/22 03:50:04;;;;;;;8.27;5.65;;;8.40;99.90;;;;;;5017914;28;20515;-33
2023/04/22 03:52:30;;;;;;;9.23;5.90;;;8.40;99.90;;;;;;5033489;28;20080;-33
2023/04/22 03:54:55;;;;;;;8.63;5.60;;;8.40;99.90;;;;;;5028954;28;20501;-34
2023/04/22 03:57:21;;;;;;;8.35;5.57;;;8.40;99.90;;;;;;5025360;28;20448;-34
2023/04/22 03:59:47;;;;;;;8.23;4.82;;;8.40;99.90;;;;;;5016442;28;20089;-33
2023/04/22 04:02:12;;;;;;;8.85;6.13;;;8.40;99.90;;;;;;5031962;28;20495;-35
2023/04/22 04:04:38;;;;;;;9.52;6.28;;;8.30;99.90;;;;;;5024121;28;20046;-33
2023/04/22 04:07:04;;;;;;;8.48;5.97;;;8.20;99.90;;;;;;5030217;28;20085;-33
2023/04/22 04:09:30;;;;;;;8.05;5.00;;;8.20;99.90;;;;;;5036720;28;20053;-33
2023/04/22 04:11:56;;;;;;;8.48;5.68;;;8.20;99.90;;;;;;5035211;28;20045;-32
2023/04/22 04:14:22;;;;;;;9.82;5.97;;;8.10;99.90;;;;;;5029948;28;20069;-33
2023/04/22 04:16:48;;;;;;;7.65;5.07;;;8.10;99.90;;;;;;5032915;28;20088;-33
2023/04/22 04:19:13;;;;;;;8.32;4.88;;;8.10;99.90;;;;;;5032115;28;20061;-33
2023/04/22 04:21:39;;;;;;;8.40;4.88;;;8.10;99.90;;;;;;5027051;28;20426;-34
2023/04/22 04:24:06;;;;;;;7.53;4.85;;;8.10;99.90;;;;;;5010562;28;20560;-32
2023/04/22 04:26:32;;;;;;;9.35;5.13;;;8.10;99.90;;;;;;5025777;28;20051;-33
2023/04/22 04:29:00;;;;;;;6.25;3.85;;;8.10;99.90;;;;;;5041561;28;20138;-33
2023/04/22 04:31:27;;;;;;;8.80;5.47;;;8.00;99.90;;;;;;5027360;28;20403;-35
2023/04/22 04:33:52;;;;;;;7.38;5.13;;;8.10;99.90;;;;;;5038023;28;20381;-33
2023/04/22 04:36:18;;;;;;;9.63;6.55;;;8.10;99.90;;;;;;5038634;28;20064;-35
2023/04/22 04:38:46;;;;;;;9.38;5.20;;;8.10;99.90;;;;;;5030753;28;20041;-34
2023/04/22 04:41:13;;;;;;;8.25;5.07;;;8.10;99.90;;;;;;5031355;28;20053;-34
2023/04/22 04:43:39;;;;;;;8.07;5.20;;;8.10;99.90;;;;;;5032764;28;20488;-34
2023/04/22 04:46:05;;;;;;;9.65;5.30;;;8.10;99.90;;;;;;5016865;28;20499;-34
2023/04/22 04:48:34;;;;;;;8.43;5.88;;;8.10;99.90;;;;;;5014603;28;20041;-33
2023/04/22 04:51:00;;;;;;;12.07;6.60;;;8.20;99.90;;;;;;5018617;28;20050;-34
2023/04/22 04:53:26;;;;;;;9.77;6.13;;;8.20;99.90;;;;;;5017567;28;20057;-33
2023/04/22 04:55:51;;;;;;;9.52;5.70;;;8.20;99.90;;;;;;5040095;28;20052;-34
2023/04/22 04:58:17;;;;;;;8.60;5.50;;;8.20;99.90;;;;;;5017014;28;20057;-33
2023/04/22 05:00:43;;;;;;;10.45;6.80;;;8.20;99.90;;;;;;5023311;28;20042;-33
2023/04/22 05:03:08;;;;;;;10.75;5.93;;;8.20;99.90;;;;;;5015258;28;20053;-34
2023/04/22 05:05:34;;;;;;;8.98;5.78;;;8.20;99.90;;;;;;5017201;28;20384;-37
2023/04/22 05:08:00;;;;;;;10.25;6.65;;;8.30;99.90;;;;;;5010525;28;20089;-33
2023/04/22 05:10:26;;;;;;;11.25;7.18;;;8.30;99.90;;;;;;5041840;28;20499;-34
2023/04/22 05:12:51;;;;;;;11.38;7.40;;;8.40;99.90;;;;;;5022405;28;20158;-34
2023/04/22 05:15:17;;;;;;;13.55;7.07;;;8.40;99.90;;;;;;5037351;28;20060;-34
2023/04/22 05:17:43;;;;;;;10.85;6.93;;;8.50;99.90;;;;;;5038075;28;20045;-34
2023/04/22 05:20:09;;;;;;;11.18;7.55;;;8.50;99.90;;;;;;5038403;28;20490;-34
2023/04/22 05:22:40;;;;;;;11.27;7.53;;;8.50;99.90;;;;;;5032930;28;20115;-34
2023/04/22 05:25:06;;;;;;;13.45;7.43;;;8.60;99.90;;;;;;5026114;28;20511;-33
2023/04/22 05:27:32;;;;;;;12.30;7.63;;;8.70;99.90;;;;;;5024372;28;20061;-33
2023/04/22 05:29:57;;;;;;;12.13;7.78;;;8.70;99.90;;;;;;5023690;28;20100;-33
2023/04/22 05:32:23;;;;;;;12.50;7.93;;;8.80;99.90;;;;;;5021904;28;20057;-33
2023/04/22 05:34:49;;;;;;;10.95;7.22;;;8.80;99.90;;;;;;5030422;28;20054;-33
2023/04/22 05:37:14;;;;;;;12.15;7.75;;;8.90;99.90;;;;;;5021972;28;20366;-33
2023/04/22 05:39:40;;;;;;;11.73;7.20;;;8.90;99.90;;;;;;5027490;28;20053;-33
2023/04/22 05:42:05;;;;;;;10.65;6.95;;;9.00;99.90;;;;;;5021982;28;20049;-33
2023/04/22 05:44:31;;;;;;;10.27;6.78;;;9.00;99.90;;;;;;5028357;28;20041;-33
2023/04/22 05:46:57;;;;;;;13.77;8.38;;;9.10;99.90;;;;;;5021184;28;20097;-33
2023/04/22 05:49:22;;;;;;;14.38;8.88;;;9.20;99.90;;;;;;5018681;28;20052;-33
2023/04/22 05:51:49;;;;;;;12.52;8.18;;;9.20;99.90;;;;;;5031877;28;20044;-33
2023/04/22 05:54:15;;;;;;;12.95;8.43;;;9.20;99.90;;;;;;5029193;28;20107;-33
2023/04/22 05:56:40;;;;;;;9.52;6.65;;;9.30;99.90;;;;;;5036057;28;20060;-33
2023/04/22 05:59:06;;;;;;;11.40;7.00;;;9.30;99.90;;;;;;5024431;28;20049;-33
2023/04/22 06:01:32;;;;;;;11.77;8.23;;;9.40;99.90;;;;;;5022358;28;20080;-33
2023/04/22 06:03:57;;;;;;;9.52;6.60;;;9.40;99.90;;;;;;5029978;28;20053;-34
2023/04/22 06:06:23;;;;;;;12.80;7.00;;;9.50;99.90;;;;;;5030454;28;20101;-33
2023/04/22 06:08:49;;;;;;;13.98;9.57;;;9.50;99.90;;;;;;5016603;28;20514;-33
2023/04/22 06:11:14;;;;;;;14.32;8.27;;;9.60;99.90;;;;;;5017432;28;20128;-33
2023/04/22 06:13:40;;;;;;;12.88;7.97;;;9.60;99.90;;;;;;4995157;28;20041;-34
2023/04/22 06:16:06;;;;;;;12.27;7.55;;;9.70;99.90;;;;;;5004312;28;20512;-34
2023/04/22 06:18:31;;;;;;;12.98;8.70;;;9.80;99.90;;;;;;5015749;28;20042;-34
2023/04/22 06:20:57;;;;;;;11.50;7.88;;;9.90;99.90;;;;;;5025756;28;20063;-34
2023/04/22 06:23:23;;;;;;;12.00;8.07;;;9.90;99.90;;;;;;5032298;28;20086;-34
2023/04/22 06:25:48;;;;;;;12.30;8.18;;;9.90;99.90;;;;;;5021415;28;20089;-34
2023/04/22 06:28:14;;;;;;;11.52;7.70;;;10.00;99.90;;;;;;5017924;28;20152;-34
2023/04/22 06:30:40;;;;;;;12.43;8.50;;;10.00;99.90;;;;;;5027853;28;20061;-34
2023/04/22 06:33:05;;;;;;;12.10;6.85;;;10.10;99.90;;;;;;5032184;28;20053;-33
2023/04/22 06:35:31;;;;;;;10.43;6.43;;;10.20;99.90;;;;;;5034687;28;20156;-33
2023/04/22 06:37:57;;;;;;;13.25;8.02;;;10.20;99.90;;;;;;5016721;28;20046;-34
2023/04/22 06:40:22;;;;;;;12.70;8.10;;;10.30;99.90;;;;;;5025136;28;20060;-34
2023/04/22 06:42:48;;;;;;;13.18;8.30;;;10.30;99.90;;;;;;5033301;28;20106;-33
2023/04/22 06:45:13;;;;;;;15.68;8.77;;;10.30;99.90;;;;;;5019094;28;20049;-34
2023/04/22 06:47:39;;;;;;;12.88;8.40;;;10.40;99.90;;;;;;5038573;28;20057;-34
2023/04/22 06:50:07;;;;;;;13.27;8.43;;;10.40;99.90;;;;;;5039841;28;20053;-34
2023/04/22 06:52:33;;;;;;;13.90;8.77;;;10.40;99.90;;;;;;5018057;28;20057;-35
2023/04/22 06:54:58;;;;;;;13.57;9.48;;;10.40;99.90;;;;;;5015862;28;20053;-34
2023/04/22 06:57:24;;;;;;;14.30;9.40;;;10.50;99.90;;;;;;5018455;28;20585;-35
2023/04/22 06:59:50;;;;;;;10.90;7.28;;;10.50;99.90;;;;;;5021482;28;20045;-34
2023/04/22 07:02:16;;;;;;;12.38;8.18;;;10.60;99.90;;;;;;5028904;28;20110;-35
2023/04/22 07:04:41;;;;;;;12.82;8.95;;;10.70;99.90;;;;;;5021496;28;20057;-34
2023/04/22 07:07:07;;;;;;;13.73;7.93;;;10.80;99.90;;;;;;5032489;28;20067;-34
2023/04/22 07:09:34;;;;;;;13.43;9.23;;;10.90;99.90;;;;;;5029690;28;20550;-35
2023/04/22 07:12:00;;;;;;;11.85;8.23;;;10.90;99.90;;;;;;5025365;28;20049;-34
2023/04/22 07:14:26;;;;;;;15.30;9.57;;;11.00;99.90;;;;;;5036895;28;20115;-34
2023/04/22 07:16:52;;;;;;;14.63;9.20;;;11.00;99.90;;;;;;5035758;28;20161;-34
2023/04/22 07:19:17;;;;;;;12.60;8.55;;;11.10;99.90;;;;;;5034761;28;20523;-36
2023/04/22 07:21:43;;;;;;;12.05;8.10;;;11.20;99.90;;;;;;5035915;28;20046;-34
2023/04/22 07:24:11;;;;;;;13.98;9.00;;;11.20;99.90;;;;;;5025067;28;20143;-34
2023/04/22 07:26:39;;;;;;;12.73;8.73;;;11.20;99.90;;;;;;5038200;28;20080;-36
2023/04/22 07:29:04;;;;;;;13.68;9.02;;;11.30;99.90;;;;;;5037059;28;20419;-34
2023/04/22 07:31:30;;;;;;;15.43;10.32;;;11.30;99.90;;;;;;5034939;28;20053;-34
2023/04/22 07:33:55;;;;;;;13.75;9.45;;;11.40;99.90;;;;;;5033411;28;20052;-34
2023/04/22 07:36:21;;;;;;;15.52;9.70;;;11.40;99.90;;;;;;5023403;28;20061;-34
2023/04/22 07:38:47;;;;;;;14.02;8.35;;;11.50;99.90;;;;;;5022434;28;20055;-34
2023/04/22 07:41:12;;;;;;;14.95;9.05;;;11.60;99.90;;;;;;5030167;28;20057;-34
2023/04/22 07:43:38;;;;;;;13.95;9.13;;;11.60;99.90;;;;;;5037014;28;20628;-36
2023/04/22 07:46:04;;;;;;;13.93;9.35;;;11.70;99.90;;;;;;5024385;28;20578;-33
2023/04/22 07:48:29;;;;;;;14.65;7.97;;;11.80;99.90;;;;;;5029961;28;20056;-34
2023/04/22 07:50:55;;;;;;;12.20;8.40;;;11.80;99.90;;;;;;5028287;28;20495;-34
2023/04/22 07:53:21;;;;;;;13.23;8.70;;;11.90;99.90;;;;;;5034199;28;20052;-34
2023/04/22 07:55:48;;;;;;;13.63;9.55;;;12.00;99.90;;;;;;5024301;28;20511;-34
2023/04/22 07:58:14;;;;;;;13.40;8.75;;;12.10;99.90;;;;;;5023745;28;20057;-33
2023/04/22 08:00:40;;;;;;;12.52;9.23;;;12.20;99.90;;;;;;5014715;28;20096;-33
2023/04/22 08:03:06;;;;;;;12.68;8.18;;;12.30;99.90;;;;;;5014398;28;20527;-34
2023/04/22 08:05:31;;;;;;;13.48;8.52;;;12.30;99.90;;;;;;5038407;28;20958;-34
2023/04/22 08:07:57;;;;;;;12.32;8.10;;;12.50;99.90;;;;;;5029995;28;20057;-34
2023/04/22 08:10:23;;;;;;;10.73;7.25;;;12.50;99.90;;;;;;5030067;28;20131;-34
2023/04/22 08:12:48;;;;;;;10.07;6.65;;;12.70;99.90;;;;;;5030305;28;20057;-34
2023/04/22 08:15:14;;;;;;;12.15;8.35;;;12.80;99.90;;;;;;5034691;28;20053;-34
2023/04/22 08:17:40;;;;;;;13.05;7.88;;;12.90;99.90;;;;;;5044918;28;20057;-36
2023/04/22 08:20:06;;;;;;;9.95;6.97;;;13.00;99.90;;;;;;5024830;28;20084;-34
2023/04/22 08:22:32;;;;;;;12.32;7.57;;;13.10;99.90;;;;;;5013818;28;20064;-34
2023/04/22 08:24:59;;;;;;;9.70;7.00;;;13.20;99.90;;;;;;5013777;28;20057;-35
2023/04/22 08:27:25;;;;;;;9.85;6.70;;;13.30;99.90;;;;;;5025407;28;20106;-34
2023/04/22 08:29:50;;;;;;;10.23;6.80;;;13.40;99.90;;;;;;5021891;28;20058;-34
2023/04/22 08:32:18;;;;;;;8.98;6.65;;;13.50;99.90;;;;;;5028420;28;20103;-34
2023/04/22 08:34:47;;;;;;;11.52;6.82;;;13.60;99.90;;;;;;5013619;28;20057;-34
2023/04/22 08:37:13;;;;;;;10.55;6.47;;;13.70;99.90;;;;;;5026407;28;20103;-34
2023/04/22 08:39:39;;;;;;;9.43;6.43;;;13.80;99.90;;;;;;5034918;28;20081;-35
2023/04/22 08:42:05;;;;;;;10.00;6.85;;;14.00;99.90;;;;;;5031215;28;20580;-34
2023/04/22 08:44:30;;;;;;;8.90;6.15;;;14.10;99.90;;;;;;5045311;28;20041;-34
2023/04/22 08:46:58;;;;;;;10.48;5.43;;;14.20;99.90;;;;;;5024105;28;20061;-34
2023/04/22 08:49:25;;;;;;;9.13;6.20;;;14.20;99.90;;;;;;5020148;28;20053;-34
2023/04/22 08:51:51;;;;;;;8.90;5.18;;;14.20;99.90;;;;;;5029025;28;20075;-34
2023/04/22 08:54:17;;;;;;;7.20;5.10;;;14.30;99.90;;;;;;5039803;28;20426;-44
2023/04/22 08:56:44;;;;;;;7.25;5.45;;;14.40;99.90;;;;;;5037936;28;20075;-34
2023/04/22 08:59:11;;;;;;;8.93;5.63;;;14.60;99.90;;;;;;5033480;28;20509;-34
2023/04/22 09:01:40;;;;;;;7.90;5.63;;;14.80;99.90;;;;;;5033947;28;20054;-38
2023/04/22 09:04:09;;;;;;;8.40;5.47;;;15.00;99.90;;;;;;5037728;28;20060;-34
2023/04/22 09:06:34;;;;;;;10.23;6.43;;;15.30;99.90;;;;;;5038089;28;20143;-33
2023/04/22 09:09:00;;;;;;;7.32;4.90;;;15.30;99.90;;;;;;5029951;28;20068;-34
2023/04/22 09:11:28;;;;;;;7.07;4.80;;;15.40;99.90;;;;;;5034296;28;20457;-33
2023/04/22 09:13:54;;;;;;;6.57;5.05;;;15.40;99.90;;;;;;5034986;28;20111;-35
2023/04/22 09:16:19;;;;;;;7.30;4.90;;;15.40;99.90;;;;;;5029529;28;20052;-35
2023/04/22 09:18:45;;;;;;;9.10;4.97;;;15.40;99.90;;;;;;5025585;28;20137;-36
2023/04/22 09:21:11;;;;;;;6.82;4.80;;;15.50;99.90;;;;;;5026135;28;20081;-34
2023/04/22 09:24:05;;;;;;;10.45;4.85;;;15.70;99.90;;;;;;5033770;28;20060;-34
2023/04/22 09:26:31;;;;;;;6.65;5.07;;;15.90;99.90;;;;;;5025173;28;20514;-34
2023/04/22 09:28:58;;;;;;;8.88;5.68;;;16.00;99.90;;;;;;5028059;28;20053;-34
2023/04/22 09:31:24;;;;;;;7.38;5.00;;;16.10;99.90;;;;;;5030070;28;20041;-34
2023/04/22 09:33:55;;;;;;;7.28;5.20;;;16.10;99.90;;;;;;5037649;28;20060;-34
2023/04/22 09:36:28;;;;;;;8.20;5.22;;;16.10;99.90;;;;;;5027464;28;20046;-36
2023/04/22 09:39:03;;;;;;;7.55;4.82;;;16.10;99.90;;;;;;5031102;28;20063;-53
2023/04/22 09:41:34;;;;;;;8.38;5.07;;;16.10;99.90;;;;;;5037388;28;20527;-33
2023/04/22 09:44:01;;;;;;;7.00;4.78;;;16.20;99.90;;;;;;5024421;28;20071;-34
2023/04/22 09:46:29;;;;;;;16.35;7.88;;;16.20;99.90;;;;;;5036846;28;20052;-34
2023/04/22 09:48:57;;;;;;;7.65;5.57;;;16.30;99.90;;;;;;5033410;28;20796;-34
2023/04/22 09:51:24;;;;;;;7.60;5.60;;;16.40;99.90;;;;;;5017072;28;20049;-35
2023/04/22 09:53:58;;;;;;;7.93;5.80;;;16.50;99.90;;;;;;5038243;28;20469;-34
2023/04/22 09:56:47;;;;;;;8.23;5.60;;;16.60;99.90;;;;;;5032095;28;20128;-34
2023/04/22 09:59:14;;;;;;;9.02;6.05;;;16.70;99.90;;;;;;5019586;28;20060;-34
2023/04/22 10:01:41;;;;;;;8.95;4.85;;;16.80;99.90;;;;;;5020417;28;20099;-34
2023/04/22 10:04:08;;;;;;;9.07;5.57;;;16.90;99.90;;;;;;5018981;28;20100;-34
2023/04/22 10:06:34;;;;;;;9.00;5.90;;;17.10;99.90;;;;;;5028809;28;20111;-34
2023/04/22 10:09:01;;;;;;;6.80;5.10;;;17.20;99.90;;;;;;5027250;28;20057;-34
2023/04/22 10:11:27;;;;;;;6.35;4.63;;;17.40;99.90;;;;;;5030846;28;20041;-35
2023/04/22 10:13:53;;;;;;;8.48;5.55;;;17.50;99.90;;;;;;5040345;28;20380;-34
2023/04/22 10:16:21;;;;;;;7.40;5.10;;;17.60;99.90;;;;;;5015300;28;20266;-34
2023/04/22 10:18:48;;;;;;;10.32;5.30;;;17.70;99.90;;;;;;5025086;28;20084;-35
2023/04/22 10:21:16;;;;;;;7.90;5.50;;;17.80;99.90;;;;;;5023228;28;20740;-34
2023/04/22 10:23:47;;;;;;;7.47;4.82;;;17.90;99.90;;;;;;5027971;28;20130;-34
2023/04/22 10:26:39;;;;;;;6.63;4.80;;;18.00;99.90;;;;;;5021275;28;20045;-35
2023/04/22 10:29:15;;;;;;;6.38;4.72;;;18.20;99.90;;;;;;5027245;28;20061;-34
2023/04/22 10:31:53;;;;;;;7.75;5.50;;;18.30;99.90;;;;;;5017360;28;21393;-35
2023/04/22 10:34:19;;;;;;;7.78;5.15;;;18.50;99.90;;;;;;5032006;28;20093;-34
2023/04/22 10:36:56;;;;;;;7.45;5.10;;;18.80;99.90;;;;;;5039640;28;20621;-35
2023/04/22 10:39:22;;;;;;;8.35;5.05;;;19.00;99.90;;;;;;5029959;28;20137;-34
2023/04/22 10:42:11;;;;;;;6.13;4.35;;;19.10;99.90;;;;;;5037217;28;20488;-50
2023/04/22 10:44:59;;;;;;;6.60;4.78;;;19.10;99.90;;;;;;5034242;28;20499;-35
2023/04/22 10:47:37;;;;;;;8.82;5.13;;;19.10;99.90;;;;;;5030864;28;20053;-34
2023/04/22 10:50:24;;;;;;;7.72;4.70;;;19.20;99.90;;;;;;5030246;28;20041;-34
2023/04/22 10:53:20;;;;;;;5.95;4.00;;;19.30;99.90;;;;;;5035228;28;20052;-34
2023/04/22 10:55:52;;;;;;;8.00;3.97;;;19.30;99.90;;;;;;5034720;28;20610;-35
2023/04/22 10:58:23;;;;;;;8.20;4.40;;;19.30;99.90;;;;;;5016681;28;20553;-36
2023/04/22 11:00:56;;;;;;;8.63;4.63;;;19.20;99.90;;;;;;5019715;28;20482;-51
2023/04/22 11:03:29;;;;;;;6.57;4.78;;;19.30;99.90;;;;;;5038899;28;20494;-38
2023/04/22 11:06:15;;;;;;;11.98;4.93;;;19.40;99.90;;;;;;5019032;28;20041;-36
2023/04/22 11:08:48;;;;;;;7.03;4.88;;;19.60;99.90;;;;;;5027522;28;20064;-46
2023/04/22 11:11:17;;;;;;;7.22;4.68;;;19.80;99.90;;;;;;5030940;28;20069;-43
2023/04/22 11:13:43;;;;;;;7.25;4.70;;;19.90;99.90;;;;;;5015489;28;20132;-36
2023/04/22 11:16:08;;;;;;;7.82;5.03;;;20.00;99.90;;;;;;5015151;28;20145;-35
2023/04/22 11:18:34;;;;;;;5.95;4.47;;;19.90;99.90;;;;;;5012194;28;20486;-35
2023/04/22 11:21:08;;;;;;;5.70;4.40;;;19.90;99.90;;;;;;5015213;28;20570;-35
2023/04/22 11:23:35;;;;;;;5.75;4.10;;;20.00;99.90;;;;;;5025477;28;20398;-35
2023/04/22 11:26:03;;;;;;;6.57;4.32;;;20.10;99.90;;;;;;5021463;28;20053;-35
2023/04/22 11:28:29;;;;;;;7.30;4.80;;;20.10;99.90;;;;;;5028634;28;20045;-35
2023/04/22 11:31:10;;;;;;;5.78;4.57;;;20.00;99.90;;;;;;5026335;28;20435;-35
2023/04/22 11:33:38;;;;;;;7.57;5.47;;;19.90;99.90;;;;;;5018286;28;20084;-37
2023/04/22 11:36:04;;;;;;;7.65;4.38;;;19.80;99.90;;;;;;5014937;28;20041;-35
2023/04/22 11:38:30;;;;;;;7.13;5.07;;;19.70;99.90;;;;;;5021155;28;20137;-36
2023/04/22 11:40:57;;;;;;;9.00;4.95;;;19.70;99.90;;;;;;5013066;28;20061;-36
2023/04/22 11:43:23;;;;;;;7.10;5.15;;;19.60;99.90;;;;;;5029824;28;20057;-36
2023/04/22 11:45:49;;;;;;;6.45;4.20;;;19.60;99.90;;;;;;5034208;28;20049;-37
2023/04/22 11:48:15;;;;;;;6.78;4.80;;;19.60;99.90;;;;;;5013248;28;20790;-36
2023/04/22 11:50:44;;;;;;;7.85;4.50;;;19.70;99.90;;;;;;5034460;28;20099;-38
2023/04/22 11:53:17;;;;;;;6.07;4.25;;;19.70;99.90;;;;;;5026143;28;20053;-39
2023/04/22 11:55:44;;;;;;;8.73;5.32;;;19.70;99.90;;;;;;5038513;28;20483;-36
2023/04/22 11:58:18;;;;;;;8.43;4.82;;;19.60;99.90;;;;;;5029026;28;20415;-36
2023/04/22 12:00:49;;;;;;;9.38;5.00;;;19.70;99.90;;;;;;5018869;28;20049;-35
2023/04/22 12:03:15;;;;;;;6.55;5.05;;;19.90;99.90;;;;;;5019302;28;20041;-36
2023/04/22 12:05:48;;;;;;;6.65;5.22;;;20.10;99.90;;;;;;5027907;28;20061;-36
2023/04/22 12:08:17;;;;;;;7.28;5.25;;;20.20;99.90;;;;;;5031396;28;21207;-36
2023/04/22 12:10:52;;;;;;;6.05;4.43;;;20.20;99.90;;;;;;5027242;28;20049;-36
2023/04/22 12:13:21;;;;;;;6.60;4.95;;;20.10;99.90;;;;;;5032647;28;20056;-36
2023/04/22 12:15:52;;;;;;;8.30;5.25;;;20.00;99.90;;;;;;5036990;28;20053;-36
2023/04/22 12:18:30;;;;;;;6.13;4.43;;;19.90;99.90;;;;;;5034938;28;20056;-36
2023/04/22 12:21:13;;;;;;;6.45;5.07;;;19.80;99.90;;;;;;5020233;28;20413;-35
2023/04/22 12:23:51;;;;;;;6.28;4.65;;;19.80;99.90;;;;;;5029534;28;20049;-36
2023/04/22 12:26:18;;;;;;;6.65;4.43;;;19.90;99.90;;;;;;5023235;28;20056;-36
2023/04/22 12:28:44;;;;;;;6.15;4.47;;;20.10;99.90;;;;;;5028053;28;20072;-36
2023/04/22 12:31:11;;;;;;;7.32;4.82;;;20.30;99.90;;;;;;5013616;28;20058;-36
2023/04/22 12:33:37;;;;;;;5.45;4.10;;;20.50;99.90;;;;;;5023489;28;20084;-36
2023/04/22 12:36:04;;;;;;;6.47;3.72;;;20.70;99.90;;;;;;5035259;28;20069;-35
2023/04/22 12:38:30;;;;;;;6.07;3.97;;;20.60;99.90;;;;;;5023549;28;20052;-36
2023/04/22 12:40:57;;;;;;;5.47;3.67;;;20.50;99.90;;;;;;5020011;28;20385;-37
2023/04/22 12:43:23;;;;;;;6.57;3.60;;;20.40;99.90;;;;;;5039152;28;20455;-37
2023/04/22 12:45:49;;;;;;;7.57;3.90;;;20.20;99.90;;;;;;5035338;28;20132;-36
2023/04/22 12:48:14;;;;;;;5.85;3.95;;;20.20;99.90;;;;;;5030805;28;20111;-50